CheckWX is a tool to help pilots better visualize weather data.  It is not intended as a substitute for an official pre-flight weather briefing.

23:34:44 UTC

HTZA TAF
Abeid Amani Karume International Airport
Zanzibar, Tanzania
HTZA 121700Z 1218/1318 00000KT 9999 FEW016 BECMG 1303/1305 35010KT BKN016 FEW018CB BECMG 1308/1310 05010KT SCT020

Dec-12@
18:00 UTC

Dec-12 @ 18:00 UTC

Dec-13@
03:00 UTC

Dec-13 @ 03:00 UTC

HTZA 121700Z 1218/1318 00000KT 9999 FEW016
Cloud Levels
  • Few at 1,600' AGL

Dec-13@
03:00 UTC

Dec-13 @ 03:00 UTC

Dec-13@
08:00 UTC

Dec-13 @ 08:00 UTC

BECMG 1303/1305 35010KT BKN016 FEW018CB

Becoming

Becoming Conditions expected by Fri, Dec 13, 2019 @ 05:00 UTC

Wind
  • 350° at 10 KTS
Cloud Levels
  • Broken at 1,600' AGL
  • Few at 1,800' AGL

Dec-13@
08:00 UTC

Dec-13 @ 08:00 UTC

Dec-13@
18:00 UTC

Dec-13 @ 18:00 UTC

BECMG 1308/1310 05010KT SCT020

Becoming

Becoming Conditions expected by Fri, Dec 13, 2019 @ 10:00 UTC

Wind
  • 050° at 10 KTS
Cloud Levels
  • Scattered at 2,000' AGL